Time;durP1;ratioP1;P1;durP2;ratioP2;P2;SDS_P1;SDS_P2;PMS_P1;PMS_P2;Temp;Humidity;BMP_temperature;BMP_pressure;BME280_temperature;BME280_humidity;BME280_pressure;Samples;Min_cycle;Max_cycle;Signal;HPM_P1;HPM_P2
2021/08/02 00:00:24;;;;;;;14.70;10.05;;;14.90;99.90;;;16.19;100.00;100160.56;6167382;23;20009;-91
2021/08/02 00:03:24;;;;;;;14.07;9.70;;;14.90;99.90;;;16.18;100.00;100161.78;6293026;22;20094;-91
2021/08/02 00:05:58;;;;;;;14.13;9.18;;;14.80;99.90;;;16.14;100.00;100156.16;6287246;22;20017;-90
2021/08/02 00:09:41;;;;;;;13.40;8.90;;;14.80;99.90;;;16.13;100.00;100165.81;6289671;22;20457;-90
2021/08/02 00:12:17;;;;;;;14.48;9.93;;;14.80;99.90;;;16.03;100.00;100155.38;6288311;22;20021;-91
2021/08/02 00:14:46;;;;;;;15.13;10.13;;;14.70;99.90;;;15.96;100.00;100154.63;6287070;22;20013;-90
2021/08/02 00:17:16;;;;;;;15.55;10.07;;;14.70;99.90;;;15.92;100.00;100157.44;6318011;22;19999;-91
2021/08/02 00:19:42;;;;;;;13.77;9.50;;;14.60;99.90;;;15.88;100.00;100155.81;6292553;22;20071;-92
2021/08/02 00:22:09;;;;;;;18.48;12.05;;;14.60;99.90;;;15.80;100.00;100155.03;6293575;22;20090;-90
2021/08/02 00:24:41;;;;;;;18.05;10.55;;;14.50;99.90;;;15.84;100.00;100153.00;6292820;22;20038;-90
2021/08/02 00:27:14;;;;;;;16.92;10.80;;;14.50;99.90;;;15.83;100.00;100166.28;6288596;22;20025;-91
2021/08/02 00:29:41;;;;;;;18.88;11.27;;;14.60;99.90;;;15.85;100.00;100165.09;6286058;22;20017;-90
2021/08/02 00:32:11;;;;;;;19.02;11.60;;;14.60;99.90;;;15.87;100.00;100162.66;6312203;22;20426;-90
2021/08/02 00:34:40;;;;;;;16.95;10.90;;;14.50;99.90;;;15.89;100.00;100169.50;6288295;22;20089;-90
2021/08/02 00:37:32;;;;;;;21.55;11.48;;;14.50;99.90;;;15.90;100.00;100159.84;6284501;22;20010;-89
2021/08/02 00:40:42;;;;;;;17.02;11.48;;;14.60;99.90;;;16.00;100.00;100164.63;6286191;22;20088;-91
2021/08/02 00:43:42;;;;;;;18.17;11.38;;;14.70;99.90;;;16.10;100.00;100171.47;6284811;22;20014;-91
2021/08/02 00:46:13;;;;;;;13.05;9.18;;;14.70;99.90;;;16.11;100.00;100162.63;6285937;22;20021;-91
2021/08/02 00:48:58;;;;;;;15.38;8.93;;;14.80;99.90;;;16.10;100.00;100165.81;6285711;22;20011;-90
2021/08/02 00:51:34;;;;;;;12.40;8.48;;;14.80;99.90;;;16.04;100.00;100179.53;6286069;22;20393;-89
2021/08/02 00:54:02;;;;;;;14.13;9.05;;;14.70;99.90;;;15.95;100.00;100175.53;6312131;22;20008;-91
2021/08/02 00:56:35;;;;;;;13.48;9.30;;;14.60;99.90;;;15.87;100.00;100176.75;6287242;22;20009;-91
2021/08/02 00:59:06;;;;;;;14.75;9.10;;;14.60;99.90;;;15.82;100.00;100172.34;6314002;22;20054;-91
2021/08/02 01:01:36;;;;;;;13.88;8.10;;;14.50;99.90;;;15.75;100.00;100180.78;6287007;22;20368;-90
2021/08/02 01:04:32;;;;;;;12.90;8.73;;;14.40;99.90;;;15.70;100.00;100178.41;6283837;22;20007;-90
2021/08/02 01:07:01;;;;;;;11.95;8.80;;;14.40;99.90;;;15.60;100.00;100170.75;6308127;22;20396;-91
2021/08/02 01:09:31;;;;;;;14.55;8.88;;;14.30;99.90;;;15.54;100.00;100175.19;6279141;22;20067;-90
2021/08/02 01:12:02;;;;;;;13.23;8.20;;;14.30;99.90;;;15.47;100.00;100167.53;6281093;22;20008;-89
2021/08/02 01:14:30;;;;;;;12.27;7.82;;;14.20;99.90;;;15.44;100.00;100173.97;6307085;22;20004;-90
2021/08/02 01:16:57;;;;;;;14.23;9.15;;;14.20;99.90;;;15.39;100.00;100162.28;6308108;22;20426;-90
2021/08/02 01:19:26;;;;;;;13.60;8.00;;;14.20;99.90;;;15.36;100.00;100169.53;6283533;22;20030;-90
2021/08/02 01:22:00;;;;;;;21.70;10.63;;;14.10;99.90;;;15.29;100.00;100161.88;6311529;22;20045;-91
2021/08/02 01:24:27;;;;;;;16.75;10.13;;;14.10;99.90;;;15.34;100.00;100171.13;6285059;22;20014;-90
2021/08/02 01:26:59;;;;;;;15.68;11.15;;;14.10;99.90;;;15.28;100.00;100168.72;6288023;22;20018;-89
2021/08/02 01:30:22;;;;;;;14.35;8.90;;;14.00;99.90;;;15.22;100.00;100169.50;6284165;22;20042;-89
2021/08/02 01:32:51;;;;;;;14.45;9.48;;;13.90;99.90;;;15.15;100.00;100163.91;6309595;22;20003;-90
2021/08/02 01:35:18;;;;;;;16.85;9.90;;;13.90;99.90;;;15.11;100.00;100177.97;6284364;22;20019;-89
2021/08/02 01:37:48;;;;;;;15.52;8.07;;;13.80;99.90;;;15.03;100.00;100167.09;6285065;22;20031;-89
2021/08/02 01:40:15;;;;;;;12.77;8.43;;;13.80;99.90;;;14.98;100.00;100173.91;6284014;22;20004;-89
2021/08/02 01:42:42;;;;;;;11.18;8.40;;;13.80;99.90;;;14.96;100.00;100175.53;6287528;22;20015;-89
2021/08/02 01:45:14;;;;;;;10.63;7.90;;;13.70;99.90;;;14.89;100.00;100176.31;6286204;22;20065;-90
2021/08/02 01:48:44;;;;;;;13.80;9.02;;;13.60;99.90;;;14.86;100.00;100179.94;6322217;22;20051;-89
2021/08/02 01:51:50;;;;;;;9.98;6.63;;;13.60;99.90;;;14.76;100.00;100178.69;6178918;23;20013;-90
2021/08/02 01:54:49;;;;;;;10.10;6.82;;;13.50;99.90;;;14.67;100.00;100188.72;6225202;22;20340;-90
2021/08/02 01:57:27;;;;;;;13.38;7.72;;;13.40;99.90;;;14.60;100.00;100183.88;6287024;22;19995;-89
2021/08/02 02:00:10;;;;;;;10.02;7.32;;;13.40;99.90;;;14.60;100.00;100189.50;6308585;22;20015;-90
2021/08/02 02:03:15;;;;;;;11.20;7.55;;;13.40;99.90;;;14.64;100.00;100190.28;6299081;22;20085;-90
2021/08/02 02:05:56;;;;;;;13.00;7.43;;;13.40;99.90;;;14.67;100.00;100189.50;6250156;22;20330;-90
2021/08/02 02:08:37;;;;;;;11.30;6.63;;;13.40;99.90;;;14.72;100.00;100186.31;6283447;22;20007;-90
2021/08/02 02:11:04;;;;;;;12.10;7.22;;;13.50;99.90;;;14.73;100.00;100187.94;6283473;22;20089;-89
2021/08/02 02:13:42;;;;;;;13.02;7.15;;;13.50;99.90;;;14.74;100.00;100191.53;6310029;22;20011;-89
2021/08/02 02:16:11;;;;;;;14.77;7.00;;;13.50;99.90;;;14.71;100.00;100195.13;6309077;22;20266;-90
2021/08/02 02:18:49;;;;;;;9.05;6.22;;;13.50;99.90;;;14.70;100.00;100185.09;6311074;22;20007;-89
2021/08/02 02:21:22;;;;;;;10.45;6.65;;;13.50;99.90;;;14.67;100.00;100188.72;6282596;22;20011;-89
2021/08/02 02:23:55;;;;;;;11.00;5.93;;;13.40;99.90;;;14.65;100.00;100191.91;6311748;22;20380;-90
2021/08/02 02:27:52;;;;;;;10.57;6.00;;;13.40;99.90;;;14.62;100.00;100194.69;6285802;22;20035;-89
2021/08/02 02:30:41;;;;;;;9.73;5.88;;;13.40;99.90;;;14.62;100.00;100214.38;6231025;22;20011;-90
2021/08/02 02:33:14;;;;;;;13.02;5.72;;;13.40;99.90;;;14.57;100.00;100201.53;6286133;22;20015;-89
2021/08/02 02:35:46;;;;;;;9.27;6.03;;;13.30;99.90;;;14.60;100.00;100205.56;6286054;22;20003;-89
2021/08/02 02:38:20;;;;;;;11.80;6.10;;;13.30;99.90;;;14.62;100.00;100206.75;6311325;22;20023;-89
2021/08/02 02:40:49;;;;;;;8.10;5.35;;;13.40;99.90;;;14.64;100.00;100200.75;6284190;22;20349;-90
2021/08/02 02:43:25;;;;;;;11.60;7.25;;;13.40;99.90;;;14.67;100.00;100202.75;6310186;22;20007;-88
2021/08/02 02:45:56;;;;;;;;;;;13.40;99.90;;;14.74;100.00;100195.16;6284841;22;20086;-88
2021/08/02 02:48:28;;;;;;;13.18;6.53;;;13.40;99.90;;;14.80;100.00;100198.41;6284442;22;20332;-89
2021/08/02 02:50:58;;;;;;;8.57;6.20;;;13.50;99.90;;;14.82;100.00;100201.59;6283918;22;20089;-89
2021/08/02 02:53:34;;;;;;;9.75;5.88;;;13.60;99.90;;;14.82;100.00;100207.22;6283772;22;20011;-89
2021/08/02 02:56:14;;;;;;;;;;;13.60;99.90;;;14.85;100.00;100209.25;6311526;22;19996;-90
2021/08/02 02:58:43;;;;;;;10.90;6.25;;;13.50;99.90;;;14.82;100.00;100203.59;6284502;22;19903;-90
2021/08/02 03:01:22;;;;;;;10.02;6.22;;;13.60;99.90;;;14.86;100.00;100210.84;6284042;22;20019;-90
2021/08/02 03:03:59;;;;;;;16.20;7.88;;;13.60;99.90;;;14.85;100.00;100208.44;6284114;22;20007;-91
2021/08/02 03:06:28;;;;;;;9.73;5.90;;;13.60;99.90;;;14.84;100.00;100201.19;6289326;22;20011;-90
2021/08/02 03:09:07;;;;;;;11.88;5.32;;;13.50;99.90;;;14.82;100.00;100204.41;6292218;22;20055;-89
2021/08/02 03:11:38;;;;;;;7.70;5.32;;;13.60;99.90;;;14.85;100.00;100212.06;6285747;22;20480;-91
2021/08/02 03:14:04;;;;;;;9.05;5.60;;;13.60;99.90;;;14.77;100.00;100208.41;6299211;22;20003;-89
2021/08/02 03:16:32;;;;;;;10.05;6.13;;;13.60;99.90;;;14.80;100.00;100220.06;6325217;22;20019;-89
2021/08/02 03:18:59;;;;;;;9.38;5.18;;;13.50;99.90;;;14.72;100.00;100219.22;6291718;22;19999;-89
2021/08/02 03:21:31;;;;;;;8.25;5.93;;;13.40;99.90;;;14.70;100.00;100218.84;6292083;22;20007;-90
2021/08/02 03:24:39;;;;;;;8.15;5.47;;;13.50;99.90;;;14.71;100.00;100223.25;6289260;22;20074;-88
2021/08/02 03:27:26;;;;;;;12.90;5.90;;;13.50;99.90;;;14.74;100.00;100217.63;6317674;22;20003;-89
2021/08/02 03:30:07;;;;;;;8.88;5.95;;;13.50;99.90;;;14.79;100.00;100216.44;6292155;22;20014;-89
2021/08/02 03:32:36;;;;;;;13.73;5.45;;;13.50;99.90;;;14.82;100.00;100210.03;6325543;22;20008;-89
2021/08/02 03:35:10;;;;;;;9.88;6.03;;;13.50;99.90;;;14.80;100.00;100204.00;6302018;22;20007;-88
2021/08/02 03:37:40;;;;;;;8.48;5.22;;;13.50;99.90;;;14.80;100.00;100204.00;6301525;22;20034;-89
2021/08/02 03:40:16;;;;;;;9.45;4.88;;;13.50;99.90;;;14.77;100.00;100210.41;6301199;22;20003;-88
2021/08/02 03:42:46;;;;;;;;;;;13.50;99.90;;;14.77;100.00;100230.09;6297646;22;20451;-89
2021/08/02 03:45:16;;;;;;;10.65;4.68;;;13.40;99.90;;;14.68;100.00;100229.66;6292433;22;19913;-89
2021/08/02 03:47:45;;;;;;;10.20;5.10;;;13.40;99.90;;;14.63;100.00;100221.63;6317693;22;20007;-90
2021/08/02 03:50:12;;;;;;;8.27;5.05;;;13.30;99.90;;;14.59;100.00;100234.84;6291244;22;20014;-88
2021/08/02 03:52:39;;;;;;;10.30;4.40;;;13.30;99.90;;;14.56;100.00;100238.44;6289486;22;20128;-88
2021/08/02 03:55:07;;;;;;;11.38;5.82;;;13.30;99.90;;;14.56;100.00;100236.44;6289111;22;20008;-88
2021/08/02 03:57:36;;;;;;;11.70;5.43;;;13.30;99.90;;;14.57;100.00;100243.69;6323150;22;20004;-88
2021/08/02 04:00:07;;;;;;;10.27;5.50;;;13.30;99.90;;;14.61;100.00;100235.25;6299150;22;20003;-90
2021/08/02 04:02:34;;;;;;;7.57;4.57;;;13.30;99.90;;;14.66;100.00;100234.88;6326898;22;20007;-88
2021/08/02 04:05:03;;;;;;;7.50;5.03;;;13.40;99.90;;;14.71;100.00;100232.47;6297602;22;20011;-88
2021/08/02 04:07:35;;;;;;;6.88;4.63;;;13.40;99.90;;;14.73;100.00;100248.97;6292388;22;20064;-88
2021/08/02 04:10:01;;;;;;;10.07;5.82;;;13.40;99.90;;;14.72;100.00;100241.72;6290662;22;20061;-88
2021/08/02 04:12:28;;;;;;;7.60;5.00;;;13.40;99.90;;;14.75;100.00;100252.97;6289127;22;20015;-90
2021/08/02 04:15:11;;;;;;;11.70;6.20;;;13.40;99.90;;;14.84;100.00;100244.16;6288620;22;20010;-87
2021/08/02 04:17:39;;;;;;;11.90;5.85;;;13.50;99.90;;;14.83;100.00;100244.59;6288876;22;20027;-88
2021/08/02 04:20:09;;;;;;;7.38;4.70;;;13.50;99.90;;;14.86;100.00;100247.41;6293609;22;20003;-89
2021/08/02 04:22:35;;;;;;;13.52;6.18;;;13.50;99.90;;;14.87;100.00;100257.44;6290509;22;20007;-88
2021/08/02 04:25:35;;;;;;;11.25;5.72;;;13.60;99.90;;;14.94;100.00;100251.03;6308055;22;20062;-88
2021/08/02 04:28:01;;;;;;;8.93;5.10;;;13.60;99.90;;;14.98;100.00;100249.03;6295448;22;20042;-90
2021/08/02 04:30:32;;;;;;;8.35;5.22;;;13.60;99.90;;;15.02;100.00;100250.66;6288301;22;20011;-90
2021/08/02 04:33:00;;;;;;;10.20;5.80;;;13.60;99.90;;;15.07;100.00;100257.91;6288972;22;20003;-90
2021/08/02 04:35:27;;;;;;;9.02;6.30;;;13.80;99.90;;;15.09;100.00;100261.91;6288360;22;20068;-89
2021/08/02 04:37:56;;;;;;;10.73;4.63;;;13.70;99.90;;;15.09;100.00;100261.13;6288348;22;20007;-91
2021/08/02 04:40:22;;;;;;;7.50;4.18;;;13.70;99.90;;;15.10;100.00;100249.47;6287011;22;20086;-89
2021/08/02 04:42:55;;;;;;;5.85;4.22;;;13.70;99.90;;;15.12;100.00;100252.69;6286713;22;20080;-89
2021/08/02 04:45:22;;;;;;;9.75;5.45;;;13.70;99.90;;;15.14;100.00;100261.53;6288637;22;20015;-88
2021/08/02 04:47:52;;;;;;;8.27;4.53;;;13.80;99.90;;;15.17;100.00;100257.94;6287698;22;20018;-89
2021/08/02 04:50:29;;;;;;;9.68;4.95;;;13.80;99.90;;;15.18;100.00;100259.56;6291419;22;20027;-89
2021/08/02 04:52:57;;;;;;;8.48;4.68;;;13.80;99.90;;;15.20;100.00;100261.94;6289869;22;20007;-90
2021/08/02 04:55:27;;;;;;;7.53;4.35;;;13.90;99.90;;;15.24;100.00;100269.22;6290076;22;20393;-90
2021/08/02 04:57:54;;;;;;;10.63;5.15;;;13.80;99.90;;;15.23;100.00;100264.78;6295309;22;19999;-88
2021/08/02 05:00:20;;;;;;;6.70;4.95;;;13.80;99.90;;;15.23;100.00;100261.16;6297709;22;20010;-88
2021/08/02 05:02:47;;;;;;;9.90;5.13;;;13.90;99.90;;;15.26;100.00;100269.59;6301026;22;20004;-88
2021/08/02 05:05:14;;;;;;;11.23;4.50;;;13.90;99.90;;;15.28;100.00;100270.00;6318342;22;20029;-88
2021/08/02 05:07:42;;;;;;;10.70;5.05;;;13.90;99.90;;;15.29;100.00;100257.53;6285917;22;20007;-90
2021/08/02 05:10:22;;;;;;;7.30;4.88;;;14.00;99.90;;;15.31;100.00;100260.75;6285128;22;20018;-90
2021/08/02 05:12:53;;;;;;;8.48;4.75;;;14.00;99.90;;;15.35;100.00;100262.81;6285397;22;20000;-91
2021/08/02 05:15:24;;;;;;;8.68;6.40;;;14.00;99.90;;;15.39;100.00;100272.03;6288724;22;20007;-89
2021/08/02 05:17:50;;;;;;;8.95;5.80;;;14.00;99.90;;;15.41;100.00;100272.44;6287559;22;20007;-91
2021/08/02 05:20:19;;;;;;;12.05;5.82;;;14.00;99.90;;;15.49;100.00;100274.09;6313871;22;19999;-89
2021/08/02 05:22:46;;;;;;;12.38;6.22;;;14.10;99.90;;;15.53;100.00;100275.72;6287075;22;20007;-89
2021/08/02 05:25:14;;;;;;;12.55;6.55;;;14.10;99.90;;;15.60;100.00;100277.72;6287221;22;20045;-90
2021/08/02 05:27:52;;;;;;;11.00;6.05;;;14.20;99.90;;;15.63;100.00;100285.38;6286852;22;20407;-88
2021/08/02 05:30:23;;;;;;;14.15;7.22;;;14.20;99.90;;;15.61;100.00;100276.50;6306487;22;19991;-89
2021/08/02 05:32:50;;;;;;;10.27;5.65;;;14.20;99.90;;;15.63;100.00;100286.19;6290023;22;20018;-89
2021/08/02 05:35:16;;;;;;;8.35;4.40;;;14.20;99.90;;;15.64;100.00;100287.78;6310346;22;20011;-89
2021/08/02 05:37:42;;;;;;;12.48;7.15;;;14.30;99.90;;;15.63;100.00;100297.44;6284178;22;20007;-89
2021/08/02 05:40:10;;;;;;;11.90;4.75;;;14.20;99.90;;;15.65;100.00;100299.84;6284963;22;20003;-89
2021/08/02 05:42:39;;;;;;;7.57;4.35;;;14.20;99.90;;;15.64;100.00;100290.59;6312326;22;20011;-89
2021/08/02 05:45:08;;;;;;;6.50;4.55;;;14.30;99.90;;;15.66;100.00;100287.38;6285711;22;20011;-88
2021/08/02 05:47:40;;;;;;;8.88;4.75;;;14.20;99.90;;;15.64;100.00;100286.97;6284948;22;20034;-88
2021/08/02 05:50:08;;;;;;;7.93;5.13;;;14.20;99.90;;;15.65;100.00;100289.38;6284534;22;20058;-90
2021/08/02 05:52:34;;;;;;;5.32;3.58;;;14.20;99.90;;;15.63;100.00;100289.00;6287191;22;20007;-90
2021/08/02 05:55:01;;;;;;;11.13;5.25;;;14.20;99.90;;;15.66;100.00;100287.38;6290569;22;20071;-89
2021/08/02 05:57:28;;;;;;;10.98;5.10;;;14.20;99.90;;;15.73;100.00;100295.84;6288245;22;20003;-89
2021/08/02 05:59:55;;;;;;;8.63;3.92;;;14.30;99.90;;;15.79;100.00;100292.22;6291594;22;20091;-87
2021/08/02 06:02:27;;;;;;;7.43;4.32;;;14.30;99.90;;;15.87;100.00;100298.63;6314709;22;20007;-87
2021/08/02 06:04:54;;;;;;;13.98;5.20;;;14.50;99.90;;;15.90;100.00;100299.84;6316386;22;20007;-86
2021/08/02 06:07:21;;;;;;;12.98;5.22;;;14.50;99.90;;;15.96;100.00;100290.59;6288314;22;20011;-89
2021/08/02 06:09:49;;;;;;;6.95;4.32;;;14.50;99.90;;;16.00;100.00;100293.41;6313551;22;20007;-88
2021/08/02 06:12:18;;;;;;;8.32;3.78;;;14.50;99.90;;;16.03;100.00;100299.03;6287164;22;20219;-87
2021/08/02 06:14:45;;;;;;;9.90;4.40;;;14.60;99.90;;;16.06;100.00;100306.69;6287006;22;20003;-90
2021/08/02 06:17:12;;;;;;;6.05;3.75;;;14.60;99.90;;;16.08;100.00;100304.28;6287805;22;20008;-87
2021/08/02 06:19:38;;;;;;;8.50;3.90;;;14.60;99.90;;;16.14;100.00;100316.75;6287768;22;20007;-90
2021/08/02 06:22:06;;;;;;;4.88;3.22;;;14.70;99.90;;;16.15;100.00;100318.34;6288087;22;20033;-87
2021/08/02 06:24:32;;;;;;;8.60;3.80;;;14.70;99.90;;;16.11;100.00;100314.75;6287409;22;20011;-90
2021/08/02 06:26:57;;;;;;;7.55;4.20;;;14.70;99.90;;;16.08;100.00;100317.56;6311747;22;20030;-87
2021/08/02 06:29:23;;;;;;;7.00;3.28;;;14.70;99.90;;;16.03;100.00;100320.75;6286167;22;20013;-88
2021/08/02 06:31:49;;;;;;;9.65;4.18;;;14.60;99.90;;;16.05;100.00;100318.38;6283972;22;20107;-88
2021/08/02 06:34:15;;;;;;;8.60;3.97;;;14.60;99.90;;;16.12;100.00;100332.44;6286527;22;20018;-87
2021/08/02 06:36:42;;;;;;;15.43;5.63;;;14.70;99.90;;;16.18;100.00;100328.81;6288424;22;20003;-88
2021/08/02 06:39:08;;;;;;;14.55;4.63;;;14.70;99.90;;;16.22;100.00;100328.81;6289076;22;20186;-88
2021/08/02 06:41:34;;;;;;;12.48;4.65;;;14.80;99.90;;;16.30;100.00;100338.88;6313410;22;20022;-87
2021/08/02 06:43:59;;;;;;;11.10;4.30;;;14.80;99.90;;;16.33;100.00;100327.59;6285083;22;20041;-85
2021/08/02 06:46:29;;;;;;;13.00;4.80;;;14.80;99.90;;;16.38;99.62;100334.81;6285591;22;20012;-87
2021/08/02 06:48:55;;;;;;;10.82;4.20;;;14.90;99.90;;;16.48;99.04;100342.47;6292982;22;20318;-87
2021/08/02 06:51:23;;;;;;;8.35;4.93;;;14.90;99.90;;;16.58;98.77;100338.84;6333795;22;20007;-87
2021/08/02 06:53:48;;;;;;;8.52;4.20;;;15.00;99.90;;;16.74;97.12;100347.66;6298448;22;20047;-89
2021/08/02 06:56:15;;;;;;;7.28;4.28;;;15.20;99.90;;;16.86;96.50;100335.94;6286402;22;20008;-87
2021/08/02 06:58:41;;;;;;;4.97;3.45;;;15.30;99.90;;;16.97;95.25;100346.38;6315161;22;20078;-90
2021/08/02 07:01:07;;;;;;;5.47;3.28;;;15.40;99.90;;;16.99;94.87;100350.41;6290648;22;20371;-87
2021/08/02 07:03:35;;;;;;;6.28;3.30;;;15.40;99.90;;;17.03;94.59;100350.38;6288487;22;20057;-89
2021/08/02 07:06:02;;;;;;;7.57;3.15;;;15.40;99.90;;;17.05;94.76;100359.28;6289801;22;20007;-88
2021/08/02 07:08:37;;;;;;;9.05;3.20;;;15.50;99.90;;;17.15;94.85;100359.22;6290137;22;20318;-88
2021/08/02 07:11:07;;;;;;;10.45;3.55;;;15.50;99.90;;;17.26;93.75;100351.50;6315702;22;20314;-89
2021/08/02 07:13:46;;;;;;;8.73;3.15;;;15.70;99.90;;;17.43;93.42;100358.28;6288923;22;20008;-88
2021/08/02 07:16:12;;;;;;;4.15;2.35;;;15.90;99.90;;;17.60;91.42;100356.56;6314580;22;20510;-88
2021/08/02 07:18:40;;;;;;;5.28;2.90;;;16.00;99.90;;;17.65;89.38;100354.16;6288800;22;20007;-89
2021/08/02 07:21:07;;;;;;;7.00;2.53;;;16.00;99.90;;;17.59;86.42;100350.16;6289841;22;20003;-89
2021/08/02 07:23:34;;;;;;;7.43;2.80;;;16.10;99.90;;;17.55;88.27;100345.69;6288539;22;20471;-89
2021/08/02 07:26:01;;;;;;;5.47;2.63;;;16.10;99.90;;;17.82;85.98;100356.03;6289501;22;20038;-89
2021/08/02 07:28:27;;;;;;;4.70;2.25;;;16.30;99.90;;;18.12;85.92;100360.25;6289166;22;20090;-90
2021/08/02 07:30:55;;;;;;;5.38;2.00;;;16.40;99.90;;;18.31;84.17;100365.34;6288914;22;20007;-88
2021/08/02 07:33:22;;;;;;;7.45;2.75;;;16.60;99.90;;;18.36;85.03;100362.88;6316609;22;20007;-88
2021/08/02 07:35:48;;;;;;;4.53;2.65;;;16.60;99.90;;;18.40;85.17;100365.66;6289957;22;20015;-89
2021/08/02 07:38:14;;;;;;;5.35;2.42;;;16.70;99.90;;;18.30;85.64;100370.19;6318543;22;20081;-89
2021/08/02 07:40:42;;;;;;;4.82;2.42;;;16.70;99.90;;;18.14;87.00;100360.66;6290954;22;20042;-91
2021/08/02 07:43:09;;;;;;;3.85;2.10;;;16.60;99.90;;;17.93;86.44;100370.09;6289898;22;20057;-88
2021/08/02 07:45:36;;;;;;;4.78;2.55;;;16.40;99.90;;;17.70;87.04;100362.16;6313096;22;20090;-90
2021/08/02 07:48:03;;;;;;;6.55;2.60;;;16.30;99.90;;;17.54;87.56;100361.03;6314785;22;20007;-90
2021/08/02 07:50:29;;;;;;;8.05;2.38;;;16.10;99.90;;;17.46;88.39;100365.13;6288904;22;20380;-89
2021/08/02 07:52:54;;;;;;;3.95;2.22;;;16.00;99.90;;;17.44;89.74;100353.41;6289514;22;20007;-89
2021/08/02 07:55:21;;;;;;;4.60;2.42;;;16.00;99.90;;;17.39;89.74;100360.31;6314583;22;20006;-88
2021/08/02 07:57:47;;;;;;;6.22;2.50;;;16.00;99.90;;;17.39;88.67;100363.94;6287026;22;20029;-89
2021/08/02 08:00:17;;;;;;;4.00;2.25;;;15.90;99.90;;;17.46;89.75;100370.75;6288477;22;20278;-90
2021/08/02 08:02:46;;;;;;;5.03;2.50;;;15.90;99.90;;;17.51;90.20;100373.16;6287240;22;20386;-88
2021/08/02 08:05:14;;;;;;;6.20;2.47;;;16.00;99.90;;;17.56;89.22;100373.56;6287967;22;20063;-89
2021/08/02 08:07:50;;;;;;;6.32;2.30;;;16.00;99.90;;;17.60;89.65;100371.50;6288229;22;20011;-88
2021/08/02 08:10:22;;;;;;;5.93;2.90;;;16.00;99.90;;;17.57;89.11;100368.69;6288291;22;20075;-90
2021/08/02 08:12:50;;;;;;;4.57;2.72;;;16.00;99.90;;;17.47;89.52;100361.06;6289371;22;20011;-89
2021/08/02 08:15:18;;;;;;;6.82;2.40;;;16.00;99.90;;;17.55;90.69;100373.94;6287081;22;20451;-90
2021/08/02 08:17:45;;;;;;;8.98;3.50;;;16.10;99.90;;;17.58;88.30;100371.13;6288823;22;20333;-88
2021/08/02 08:20:18;;;;;;;7.18;3.45;;;16.00;99.90;;;17.61;87.53;100370.31;6316219;22;20007;-90
2021/08/02 08:22:44;;;;;;;9.48;3.58;;;16.00;99.90;;;17.54;86.25;100372.31;6288937;22;20003;-89
2021/08/02 08:25:16;;;;;;;4.65;2.72;;;16.10;99.90;;;17.60;86.69;100363.03;6287291;22;20086;-89
2021/08/02 08:27:42;;;;;;;4.85;2.47;;;16.10;99.90;;;17.69;86.07;100366.19;6288890;22;20077;-90
2021/08/02 08:30:11;;;;;;;6.10;2.72;;;16.20;99.90;;;17.73;86.80;100369.81;6287961;22;20007;-90
2021/08/02 08:32:37;;;;;;;5.40;3.13;;;16.20;99.90;;;17.85;85.22;100363.69;6288270;22;20011;-90
2021/08/02 08:35:04;;;;;;;6.55;2.85;;;16.30;99.90;;;17.98;84.92;100369.63;6287715;22;20007;-90
2021/08/02 08:37:30;;;;;;;6.63;2.55;;;16.40;99.90;;;18.27;84.84;100373.03;6314309;22;20003;-88
2021/08/02 08:39:56;;;;;;;7.22;2.45;;;16.60;99.90;;;18.28;80.80;100366.16;6287626;22;20337;-89
2021/08/02 08:42:22;;;;;;;5.00;2.08;;;16.70;99.90;;;18.52;80.69;100373.66;6287205;22;20011;-88
2021/08/02 08:44:48;;;;;;;4.00;1.75;;;16.80;99.90;;;18.58;80.85;100374.81;6288681;22;20033;-89
2021/08/02 08:47:13;;;;;;;5.32;1.83;;;16.90;99.90;;;18.62;79.52;100372.72;6287533;22;20056;-89
2021/08/02 08:49:41;;;;;;;3.25;1.70;;;17.00;99.90;;;18.68;77.40;100370.28;6313640;22;20003;-90
2021/08/02 08:52:09;;;;;;;2.70;1.45;;;17.00;99.90;;;18.74;77.30;100374.25;6314436;22;20007;-88
2021/08/02 08:54:42;;;;;;;5.65;1.95;;;17.00;99.90;;;19.00;77.96;100379.22;6288811;22;20011;-90
2021/08/02 08:57:25;;;;;;;5.53;1.92;;;17.20;99.90;;;19.03;75.31;100380.41;6287861;22;20033;-88
2021/08/02 08:59:54;;;;;;;6.03;2.10;;;17.30;99.90;;;18.90;75.12;100371.66;6288809;22;20007;-88
2021/08/02 09:02:29;;;;;;;6.70;2.50;;;17.30;99.90;;;18.90;74.44;100375.28;6288511;22;20019;-89
2021/08/02 09:05:03;;;;;;;4.22;2.22;;;17.30;99.90;;;19.11;75.75;100381.91;6287166;22;20438;-88
2021/08/02 09:07:38;;;;;;;3.03;2.22;;;17.40;99.90;;;19.38;75.54;100383.59;6295365;22;20007;-90
2021/08/02 09:10:12;;;;;;;11.23;3.65;;;17.50;99.90;;;19.59;75.37;100379.69;6306455;22;20007;-88
2021/08/02 09:13:07;;;;;;;9.48;4.20;;;17.80;99.90;;;19.72;71.53;100372.22;6288718;22;20012;-88
2021/08/02 09:15:44;;;;;;;5.55;3.45;;;17.90;99.90;;;19.81;74.34;100377.38;6290393;22;19991;-90
2021/08/02 09:18:22;;;;;;;3.88;2.70;;;18.00;99.90;;;20.05;72.86;100376.19;6325332;22;20396;-88
2021/08/02 09:21:11;;;;;;;4.57;2.70;;;18.20;99.90;;;20.39;71.49;100368.34;6290416;22;20199;-88
2021/08/02 09:23:50;;;;;;;8.02;3.40;;;18.40;99.90;;;20.52;71.04;100368.50;6284679;22;20027;-88
2021/08/02 09:26:16;;;;;;;7.68;3.30;;;18.60;99.90;;;20.83;71.33;100363.50;6285247;22;20007;-88
2021/08/02 09:28:53;;;;;;;5.10;2.85;;;18.80;99.90;;;21.03;69.27;100379.28;6283703;22;20011;-88
2021/08/02 09:31:46;;;;;;;7.30;2.17;;;19.00;99.90;;;20.86;69.62;100379.66;6286391;22;20086;-90
2021/08/02 09:34:12;;;;;;;5.43;2.85;;;19.00;99.90;;;21.33;67.64;100375.47;6284042;22;20018;-87
2021/08/02 09:36:57;;;;;;;6.82;2.53;;;19.40;99.90;;;22.34;61.68;100390.63;6282840;22;20008;-89
2021/08/02 09:39:33;;;;;;;3.08;2.10;;;20.10;99.90;;;22.54;57.78;100384.81;6286660;22;20406;-88
2021/08/02 09:42:08;;;;;;;4.97;2.65;;;20.30;99.90;;;22.33;58.03;100385.38;6288106;22;20034;-87
2021/08/02 09:44:34;;;;;;;6.72;2.58;;;20.40;99.90;;;22.08;57.71;100379.50;6312107;22;20344;-89
2021/08/02 09:47:09;;;;;;;4.22;2.35;;;20.30;99.90;;;22.21;60.09;100381.19;6287516;22;20099;-87
2021/08/02 09:49:48;;;;;;;5.87;2.30;;;20.30;99.90;;;21.86;58.86;100377.16;6288850;22;20060;-88
2021/08/02 09:52:15;;;;;;;4.07;1.90;;;20.10;99.90;;;21.85;60.19;100380.41;6286636;22;20015;-90
2021/08/02 09:54:42;;;;;;;3.10;1.70;;;20.00;99.90;;;22.00;60.32;100376.00;6288207;22;20102;-87
2021/08/02 09:57:09;;;;;;;4.97;2.08;;;20.00;99.90;;;22.28;61.20;100383.88;6288360;22;20011;-88
2021/08/02 09:59:43;;;;;;;3.63;2.28;;;20.20;99.90;;;22.24;59.17;100380.31;6290455;22;20338;-89
2021/08/02 10:02:10;;;;;;;2.20;1.73;;;20.30;99.90;;;22.38;57.88;100379.94;6321916;22;20015;-87
2021/08/02 10:04:38;;;;;;;3.35;1.98;;;20.30;99.90;;;22.05;58.07;100381.19;6299809;22;20007;-87
2021/08/02 10:07:10;;;;;;;3.60;1.50;;;20.30;99.90;;;22.47;57.30;100388.66;6300385;22;20071;-89
2021/08/02 10:09:38;;;;;;;4.47;1.83;;;20.40;99.90;;;22.62;57.47;100377.69;6325197;22;20007;-91
2021/08/02 10:12:05;;;;;;;2.83;2.13;;;20.50;99.90;;;22.37;56.78;100380.41;6322804;22;20063;-91
2021/08/02 10:14:33;;;;;;;6.57;2.25;;;20.50;99.90;;;22.79;54.50;100372.81;6293802;22;20026;-86
2021/08/02 10:17:10;;;;;;;3.20;2.10;;;20.70;99.90;;;23.10;56.08;100379.66;6293175;22;20030;-91
2021/08/02 10:19:54;;;;;;;3.13;1.85;;;20.80;99.90;;;23.23;54.81;100377.66;6290752;22;20014;-88
2021/08/02 10:22:20;;;;;;;3.65;1.65;;;21.00;99.90;;;23.19;53.71;100387.53;6295787;22;20014;-91
2021/08/02 10:24:52;;;;;;;3.65;1.60;;;21.10;99.90;;;23.76;54.52;100384.63;6326853;22;19999;-89
2021/08/02 10:27:29;;;;;;;1.83;1.00;;;21.50;99.90;;;23.91;52.71;100382.94;6300525;22;20026;-89